createdAt,value
2022-10-28T08:58:44.491Z,12.45
2022-10-28T09:01:19.216Z,21.02
2022-10-28T09:03:49.226Z,18.48
2022-10-28T09:06:16.846Z,25.73
2022-10-28T09:08:45.872Z,19.67
2022-10-28T09:11:26.261Z,14.35
2022-10-28T09:16:22.480Z,18.85
2022-10-28T09:18:50.081Z,22.67
2022-10-28T09:21:29.307Z,18.50
2022-10-28T09:23:58.217Z,20.45
2022-10-28T09:26:38.093Z,20.10
2022-10-28T09:29:26.415Z,18.65
2022-10-28T09:31:56.156Z,17.23
2022-10-28T09:34:33.069Z,20.17
2022-10-28T09:37:07.124Z,21.55
2022-10-28T09:39:45.640Z,19.88
2022-10-28T09:42:24.584Z,21.08
2022-10-28T09:44:54.993Z,28.77
2022-10-28T09:47:25.113Z,22.63
2022-10-28T09:49:54.539Z,26.35
2022-10-28T09:52:24.379Z,25.52
2022-10-28T09:54:53.125Z,25.58
2022-10-28T09:57:21.491Z,29.83
2022-10-28T09:59:49.182Z,33.08
2022-10-28T10:02:30.552Z,25.38
2022-10-28T10:04:59.110Z,30.05
2022-10-28T10:07:31.041Z,25.88
2022-10-28T10:10:00.673Z,21.33
2022-10-28T10:12:31.175Z,23.48
2022-10-28T10:14:59.970Z,33.10
2022-10-28T10:17:37.388Z,32.97
2022-10-28T10:20:04.842Z,21.33
2022-10-28T10:22:50.523Z,28.92
2022-10-28T10:25:17.926Z,21.02
2022-10-28T10:28:01.708Z,23.35
2022-10-28T10:30:33.565Z,24.48
2022-10-28T10:33:02.939Z,23.23
2022-10-28T10:35:33.473Z,25.65
2022-10-28T10:38:04.483Z,28.42
2022-10-28T10:40:35.390Z,24.33
2022-10-28T10:43:17.762Z,22.90
2022-10-28T10:46:04.870Z,21.63
2022-10-28T10:48:36.256Z,21.55
2022-10-28T10:51:26.760Z,23.60
2022-10-28T10:53:57.898Z,17.70
2022-10-28T10:56:28.325Z,22.35
2022-10-28T10:59:01.226Z,22.17
2022-10-28T11:01:39.823Z,19.35
2022-10-28T11:04:15.069Z,16.08
2022-10-28T11:06:44.644Z,20.20
2022-10-28T11:09:36.315Z,16.77
2022-10-28T11:12:26.462Z,18.38
2022-10-28T11:14:57.270Z,21.50
2022-10-28T11:17:30.282Z,19.67
2022-10-28T11:20:00.115Z,20.88
2022-10-28T11:23:05.638Z,19.30
2022-10-28T11:25:38.468Z,18.52
2022-10-28T11:28:23.580Z,15.60
2022-10-28T11:30:56.835Z,19.48
2022-10-28T11:33:54.676Z,17.27
2022-10-28T11:36:39.128Z,20.08
2022-10-28T11:39:12.425Z,22.52
2022-10-28T11:41:58.365Z,15.73
2022-10-28T11:44:54.831Z,15.10
2022-10-28T11:47:41.112Z,18.47
2022-10-28T11:50:13.297Z,11.80
2022-10-28T11:53:01.675Z,16.38
2022-10-28T11:55:47.661Z,15.05
2022-10-28T11:58:26.922Z,18.52
2022-10-28T12:00:54.273Z,13.60
2022-10-28T12:04:12.578Z,12.27
2022-10-28T12:07:26.735Z,16.95
2022-10-28T12:10:21.735Z,18.77
2022-10-28T12:12:51.446Z,13.63
2022-10-28T12:15:41.954Z,14.40
2022-10-28T12:18:50.845Z,16.83
2022-10-28T12:21:39.663Z,21.80
2022-10-28T12:24:16.241Z,15.90
2022-10-28T12:26:47.363Z,16.25
2022-10-28T12:29:23.941Z,14.27
2022-10-28T12:32:03.165Z,17.30
2022-10-28T12:34:38.027Z,15.95
2022-10-28T12:37:13.769Z,15.88
2022-10-28T12:40:20.685Z,18.55
2022-10-28T12:43:01.874Z,11.93
2022-10-28T12:45:32.151Z,11.63
2022-10-28T12:48:13.731Z,12.60
2022-10-28T12:50:52.936Z,13.27
2022-10-28T12:53:35.661Z,10.35
2022-10-28T12:56:06.674Z,13.63
2022-10-28T12:58:44.835Z,13.98
2022-10-28T13:01:15.877Z,12.95
2022-10-28T13:03:43.504Z,11.35
2022-10-28T13:06:10.788Z,11.68
2022-10-28T13:08:47.362Z,10.57
2022-10-28T13:11:50.571Z,14.57
2022-10-28T13:14:56.302Z,10.85
2022-10-28T13:17:57.566Z,8.65
2022-10-28T13:20:57.541Z,14.57
2022-10-28T13:23:45.847Z,7.38
2022-10-28T13:26:31.304Z,9.83
2022-10-28T13:29:01.909Z,10.27
2022-10-28T13:31:55.608Z,7.68
2022-10-28T13:34:35.966Z,6.88
2022-10-28T13:37:06.086Z,8.35
2022-10-28T13:39:36.392Z,6.82
2022-10-28T13:42:46.177Z,8.68
2022-10-28T13:45:56.642Z,7.57
2022-10-28T13:48:30.183Z,6.63
2022-10-28T13:51:09.335Z,9.80
2022-10-28T13:53:45.530Z,8.75
2022-10-28T13:56:21.812Z,8.50
2022-10-28T13:59:02.753Z,11.43
2022-10-28T14:02:07.864Z,8.90
2022-10-28T14:04:42.825Z,11.30
2022-10-28T14:07:22.773Z,12.27
2022-10-28T14:09:53.167Z,11.35
2022-10-28T14:12:32.054Z,10.27
2022-10-28T14:15:18.934Z,13.45
2022-10-28T14:18:05.178Z,14.32
2022-10-28T14:20:48.462Z,15.50
2022-10-28T14:23:21.855Z,17.60
2022-10-28T14:25:54.562Z,22.83
2022-10-28T14:28:27.940Z,21.77
2022-10-28T14:31:10.532Z,23.45
2022-10-28T14:33:38.168Z,26.58
2022-10-28T14:36:17.705Z,28.95
2022-10-28T14:39:03.554Z,27.42
2022-10-28T14:41:55.550Z,24.20
2022-10-28T14:44:43.892Z,25.70
2022-10-28T14:47:16.790Z,22.92
2022-10-28T14:50:09.477Z,24.23
2022-10-28T14:52:37.696Z,26.45
2022-10-28T14:55:08.373Z,28.27
2022-10-28T14:57:35.772Z,29.08
2022-10-28T15:00:07.966Z,25.25
2022-10-28T15:02:38.284Z,24.65
2022-10-28T15:05:26.187Z,30.55
2022-10-28T15:07:53.976Z,35.72
2022-10-28T15:10:31.192Z,38.28
2022-10-28T15:13:00.363Z,36.65
2022-10-28T15:15:30.627Z,43.03
2022-10-28T15:17:59.264Z,44.25
2022-10-28T15:20:29.729Z,48.17
2022-10-28T15:23:18.943Z,48.65
2022-10-28T15:25:46.600Z,43.85
2022-10-28T15:28:14.484Z,49.17
2022-10-28T15:30:46.426Z,46.90
2022-10-28T15:33:38.132Z,45.97
2022-10-28T15:36:26.366Z,50.88
2022-10-28T15:39:16.990Z,46.00
2022-10-28T15:41:46.033Z,43.67
2022-10-28T15:44:43.090Z,45.38
2022-10-28T15:47:32.878Z,42.95
2022-10-28T15:50:27.130Z,47.37
2022-10-28T15:53:09.832Z,43.95
2022-10-28T15:58:40.017Z,46.88
2022-10-28T16:01:35.260Z,46.10
2022-10-28T16:04:02.829Z,48.53
2022-10-28T16:06:36.585Z,43.13
2022-10-28T16:09:06.956Z,43.90
2022-10-28T16:11:39.342Z,50.17
2022-10-28T16:14:35.680Z,52.08
2022-10-28T16:17:23.791Z,43.25
2022-10-28T16:19:58.517Z,47.00
2022-10-28T16:22:28.328Z,43.10
2022-10-28T16:24:55.766Z,47.22
2022-10-28T16:27:32.970Z,45.45
2022-10-28T16:30:00.392Z,45.70
2022-10-28T16:32:33.924Z,45.03
2022-10-28T16:35:03.980Z,43.88
2022-10-28T16:37:34.110Z,47.70
2022-10-28T16:40:01.461Z,47.58
2022-10-28T16:42:28.812Z,37.20
2022-10-28T16:44:56.123Z,33.92
2022-10-28T16:47:29.178Z,41.53
2022-10-28T16:49:57.476Z,32.50
2022-10-28T16:52:30.507Z,30.08
2022-10-28T16:54:58.773Z,32.10
2022-10-28T16:57:26.883Z,32.47
2022-10-28T16:59:54.623Z,27.33
2022-10-28T17:02:29.747Z,26.60
2022-10-28T17:04:58.020Z,27.52
2022-10-28T17:07:26.199Z,30.10
2022-10-28T17:09:53.768Z,25.45
2022-10-28T17:12:23.604Z,23.20
2022-10-28T17:14:51.212Z,24.57
2022-10-28T17:17:19.221Z,23.25
2022-10-28T17:19:46.857Z,21.10
2022-10-28T17:22:14.351Z,18.63
2022-10-28T17:24:41.835Z,20.00
2022-10-28T17:27:09.213Z,21.58
2022-10-28T17:29:36.715Z,21.92
2022-10-28T17:32:04.737Z,18.92
2022-10-28T17:34:32.172Z,19.93
2022-10-28T17:36:59.492Z,20.60
2022-10-28T17:39:27.027Z,20.85
2022-10-28T17:41:54.379Z,18.98
2022-10-28T17:44:21.925Z,21.02
2022-10-28T17:46:49.430Z,21.60
2022-10-28T17:49:17.433Z,21.85
2022-10-28T17:51:44.877Z,21.55
2022-10-28T17:54:12.291Z,21.08
2022-10-28T17:56:42.136Z,16.52
2022-10-28T17:59:09.873Z,20.33
2022-10-28T18:01:37.334Z,19.77
2022-10-28T18:04:06.143Z,19.00
2022-10-28T18:06:33.905Z,18.98
2022-10-28T18:09:01.287Z,19.83
2022-10-28T18:11:31.326Z,21.35
2022-10-28T18:13:58.722Z,21.58
2022-10-28T18:16:28.226Z,19.65
2022-10-28T18:18:56.422Z,21.70
2022-10-28T18:21:27.304Z,22.02
2022-10-28T18:24:03.372Z,24.48
2022-10-28T18:26:32.591Z,22.40
2022-10-28T18:29:03.790Z,23.70
2022-10-28T18:31:34.895Z,24.63
2022-10-28T18:34:03.343Z,20.23
2022-10-28T18:36:34.841Z,20.55
2022-10-28T18:39:05.461Z,19.88
2022-10-28T18:41:34.714Z,20.15
2022-10-28T18:44:04.442Z,19.75
2022-10-28T18:46:35.301Z,17.00
2022-10-28T18:49:02.955Z,23.87
2022-10-28T18:51:30.438Z,21.90
2022-10-28T18:53:58.027Z,24.33
2022-10-28T18:56:29.164Z,21.83
2022-10-28T18:58:58.106Z,22.13
2022-10-28T19:01:28.190Z,24.27
2022-10-28T19:04:00.961Z,21.33
2022-10-28T19:06:32.637Z,23.25
2022-10-28T19:09:02.688Z,21.88
2022-10-28T19:11:31.617Z,21.60
2022-10-28T19:14:00.657Z,20.70
2022-10-28T19:16:29.841Z,18.70
2022-10-28T19:18:58.701Z,19.95
2022-10-28T19:21:27.465Z,19.83
2022-10-28T19:23:55.547Z,19.75
2022-10-28T19:26:23.604Z,20.33
2022-10-28T19:28:52.058Z,19.80
2022-10-28T19:31:22.370Z,22.00
2022-10-28T19:33:51.359Z,20.27
2022-10-28T19:36:23.779Z,20.60
2022-10-28T19:38:55.343Z,22.25
2022-10-28T19:41:25.108Z,16.83
2022-10-28T19:43:58.560Z,19.92
2022-10-28T19:46:28.299Z,18.05
2022-10-28T19:48:58.892Z,17.95
2022-10-28T19:51:28.938Z,20.88
2022-10-28T19:53:59.200Z,21.30
2022-10-28T19:56:27.903Z,20.45
2022-10-28T19:58:57.855Z,18.70
2022-10-28T20:01:27.303Z,20.10
2022-10-28T20:03:55.959Z,20.10
2022-10-28T20:06:30.368Z,18.08
2022-10-28T20:08:57.820Z,16.48
2022-10-28T20:11:27.591Z,20.25
2022-10-28T20:14:03.255Z,20.05
2022-10-28T20:16:32.254Z,19.63
2022-10-28T20:18:59.799Z,18.80
2022-10-28T20:21:29.315Z,20.47
2022-10-28T20:23:57.794Z,20.20
2022-10-28T20:26:28.106Z,20.17
2022-10-28T20:28:56.085Z,22.00
2022-10-28T20:31:26.299Z,22.30
2022-10-28T20:33:59.670Z,21.95
2022-10-28T20:36:30.153Z,19.55
2022-10-28T20:39:16.035Z,22.38
2022-10-28T20:41:45.594Z,23.55
2022-10-28T20:44:13.020Z,24.92
2022-10-28T20:46:40.713Z,20.00
2022-10-28T20:49:13.104Z,21.80
2022-10-28T20:51:41.175Z,23.25
2022-10-28T20:54:08.656Z,25.05
2022-10-28T20:56:38.244Z,23.90
2022-10-28T20:59:05.948Z,23.27
2022-10-28T21:01:36.267Z,23.50
2022-10-28T21:04:06.577Z,18.77
2022-10-28T21:06:34.767Z,20.57
2022-10-28T21:09:02.213Z,25.27
2022-10-28T21:11:29.543Z,22.23
2022-10-28T21:13:59.376Z,21.20
2022-10-28T21:16:28.173Z,24.13
2022-10-28T21:18:56.405Z,26.42
2022-10-28T21:21:24.802Z,24.42
2022-10-28T21:23:52.545Z,22.73
2022-10-28T21:26:20.099Z,20.23
2022-10-28T21:28:52.139Z,19.33
2022-10-28T21:31:21.271Z,21.13
2022-10-28T21:36:21.451Z,19.50
2022-10-28T21:38:52.288Z,20.30
2022-10-28T21:41:20.904Z,17.87
2022-10-28T21:43:52.753Z,19.20
2022-10-28T21:46:21.525Z,25.35
2022-10-28T21:48:49.012Z,22.30
2022-10-28T21:51:17.327Z,18.08
2022-10-28T21:53:45.523Z,18.23
2022-10-28T21:56:19.245Z,16.53
2022-10-28T21:58:48.797Z,17.20
2022-10-28T22:01:24.120Z,18.65
2022-10-28T22:03:54.603Z,16.23
2022-10-28T22:06:22.413Z,18.37
2022-10-28T22:08:52.133Z,18.00
2022-10-28T22:11:21.616Z,19.30
2022-10-28T22:13:59.204Z,20.92
2022-10-28T22:16:28.145Z,17.23
2022-10-28T22:18:57.191Z,20.48
2022-10-28T22:21:30.184Z,18.60
2022-10-28T22:23:57.788Z,20.75
2022-10-28T22:26:28.483Z,18.88
2022-10-28T22:28:56.444Z,17.00
2022-10-28T22:31:26.922Z,13.95
2022-10-28T22:33:54.671Z,19.98
2022-10-28T22:36:23.511Z,21.50
2022-10-28T22:38:51.662Z,17.17
2022-10-28T22:41:24.399Z,17.95
2022-10-28T22:43:54.243Z,16.20
2022-10-28T22:46:23.297Z,16.35
2022-10-28T22:48:50.605Z,16.05
2022-10-28T22:51:18.977Z,15.23
2022-10-28T22:53:46.728Z,18.45
2022-10-28T22:56:20.361Z,18.57
2022-10-28T22:58:51.988Z,17.97
2022-10-28T23:01:20.375Z,18.02
2022-10-28T23:03:49.941Z,16.00
2022-10-28T23:06:19.826Z,16.10
2022-10-28T23:08:47.536Z,15.93
2022-10-28T23:11:16.876Z,13.35
2022-10-28T23:13:45.151Z,15.07
2022-10-28T23:16:15.013Z,15.60
2022-10-28T23:18:43.116Z,14.20
2022-10-28T23:21:32.713Z,12.10
2022-10-28T23:24:00.983Z,13.40
2022-10-28T23:26:29.443Z,14.73
2022-10-28T23:28:58.735Z,15.88
2022-10-28T23:31:27.405Z,14.98
2022-10-28T23:33:55.523Z,13.30
2022-10-28T23:36:23.306Z,13.73
2022-10-28T23:38:50.906Z,14.27
2022-10-28T23:41:19.387Z,13.02
2022-10-28T23:43:47.405Z,15.88
2022-10-28T23:46:14.869Z,11.73
2022-10-28T23:48:42.247Z,13.33
2022-10-28T23:51:09.627Z,12.43
2022-10-28T23:53:37.217Z,14.70
2022-10-28T23:56:05.132Z,13.20
2022-10-28T23:58:32.461Z,13.32
